sensor_id;sensor_type;location;lat;lon;timestamp;noise_LAeq;noise_LA_min;noise_LA_max;noise_LA01;noise_LA95
51665;Laerm;37751;52.408;12.536;2023-11-21T00:01:06;47.09;36.99;63.93;;
51665;Laerm;37751;52.408;12.536;2023-11-21T00:03:38;49.76;33.63;63.80;;
51665;Laerm;37751;52.408;12.536;2023-11-21T00:06:12;50.04;36.01;66.53;;
51665;Laerm;37751;52.408;12.536;2023-11-21T00:08:54;42.58;33.53;54.93;;
51665;Laerm;37751;52.408;12.536;2023-11-21T00:11:29;48.91;34.61;65.51;;
51665;Laerm;37751;52.408;12.536;2023-11-21T00:14:04;47.64;35.18;66.14;;
51665;Laerm;37751;52.408;12.536;2023-11-21T00:16:37;51.91;35.74;66.81;;
51665;Laerm;37751;52.408;12.536;2023-11-21T00:19:08;39.65;35.13;49.69;;
51665;Laerm;37751;52.408;12.536;2023-11-21T00:21:40;49.34;38.74;65.96;;
51665;Laerm;37751;52.408;12.536;2023-11-21T00:24:15;50.41;38.39;66.17;;
51665;Laerm;37751;52.408;12.536;2023-11-21T00:27:00;46.34;37.68;66.01;;
51665;Laerm;37751;52.408;12.536;2023-11-21T00:29:55;51.48;38.26;69.89;;
51665;Laerm;37751;52.408;12.536;2023-11-21T00:32:32;42.73;39.30;53.51;;
51665;Laerm;37751;52.408;12.536;2023-11-21T00:35:06;51.60;38.59;69.20;;
51665;Laerm;37751;52.408;12.536;2023-11-21T00:37:41;41.01;37.28;56.10;;
51665;Laerm;37751;52.408;12.536;2023-11-21T00:40:36;40.11;36.72;54.30;;
51665;Laerm;37751;52.408;12.536;2023-11-21T00:43:13;55.51;36.87;73.19;;
51665;Laerm;37751;52.408;12.536;2023-11-21T00:45:53;49.82;37.61;65.34;;
51665;Laerm;37751;52.408;12.536;2023-11-21T00:48:25;53.31;36.54;69.85;;
51665;Laerm;37751;52.408;12.536;2023-11-21T00:50:59;49.77;35.57;68.66;;
51665;Laerm;37751;52.408;12.536;2023-11-21T00:53:31;52.20;33.83;67.05;;
51665;Laerm;37751;52.408;12.536;2023-11-21T00:56:07;51.57;33.74;68.57;;
51665;Laerm;37751;52.408;12.536;2023-11-21T00:59:08;56.13;35.81;69.19;;
51665;Laerm;37751;52.408;12.536;2023-11-21T01:01:44;53.60;35.36;68.10;;
51665;Laerm;37751;52.408;12.536;2023-11-21T01:04:16;37.62;34.42;45.31;;
51665;Laerm;37751;52.408;12.536;2023-11-21T01:07:10;57.59;35.08;74.74;;
51665;Laerm;37751;52.408;12.536;2023-11-21T01:10:13;47.85;34.42;65.68;;
51665;Laerm;37751;52.408;12.536;2023-11-21T01:13:08;37.59;34.19;47.64;;
51665;Laerm;37751;52.408;12.536;2023-11-21T01:15:54;51.95;34.88;67.33;;
51665;Laerm;37751;52.408;12.536;2023-11-21T01:18:28;53.16;35.25;68.82;;
51665;Laerm;37751;52.408;12.536;2023-11-21T01:21:22;52.28;36.76;69.07;;
51665;Laerm;37751;52.408;12.536;2023-11-21T01:23:57;57.30;39.75;72.42;;
51665;Laerm;37751;52.408;12.536;2023-11-21T01:26:32;53.64;39.18;72.89;;
51665;Laerm;37751;52.408;12.536;2023-11-21T01:29:03;52.62;39.69;72.71;;
51665;Laerm;37751;52.408;12.536;2023-11-21T01:32:09;45.34;37.16;65.29;;
51665;Laerm;37751;52.408;12.536;2023-11-21T01:34:44;47.93;35.35;68.70;;
51665;Laerm;37751;52.408;12.536;2023-11-21T01:37:18;37.61;34.51;49.42;;
51665;Laerm;37751;52.408;12.536;2023-11-21T01:40:20;55.90;33.60;74.42;;
51665;Laerm;37751;52.408;12.536;2023-11-21T01:42:55;54.35;34.81;71.37;;
51665;Laerm;37751;52.408;12.536;2023-11-21T01:45:26;51.38;32.33;66.45;;
51665;Laerm;37751;52.408;12.536;2023-11-21T01:48:00;45.43;31.44;62.19;;
51665;Laerm;37751;52.408;12.536;2023-11-21T01:50:48;44.81;31.57;64.35;;
51665;Laerm;37751;52.408;12.536;2023-11-21T01:53:30;53.62;30.29;74.71;;
51665;Laerm;37751;52.408;12.536;2023-11-21T01:56:06;49.48;29.19;68.77;;
51665;Laerm;37751;52.408;12.536;2023-11-21T01:58:52;44.87;29.14;67.44;;
51665;Laerm;37751;52.408;12.536;2023-11-21T02:01:47;49.99;29.40;70.20;;
51665;Laerm;37751;52.408;12.536;2023-11-21T02:04:19;50.06;30.81;69.20;;
51665;Laerm;37751;52.408;12.536;2023-11-21T02:06:54;52.85;30.00;66.74;;
51665;Laerm;37751;52.408;12.536;2023-11-21T02:09:26;51.09;27.50;68.57;;
51665;Laerm;37751;52.408;12.536;2023-11-21T02:12:07;43.31;27.28;63.89;;
51665;Laerm;37751;52.408;12.536;2023-11-21T02:14:42;54.69;29.03;71.10;;
51665;Laerm;37751;52.408;12.536;2023-11-21T02:17:13;52.49;30.98;68.27;;
51665;Laerm;37751;52.408;12.536;2023-11-21T02:19:46;41.23;26.41;57.37;;
51665;Laerm;37751;52.408;12.536;2023-11-21T02:22:22;54.43;28.19;72.59;;
51665;Laerm;37751;52.408;12.536;2023-11-21T02:25:00;44.63;27.08;63.65;;
51665;Laerm;37751;52.408;12.536;2023-11-21T02:27:31;53.23;28.02;70.42;;
51665;Laerm;37751;52.408;12.536;2023-11-21T02:30:04;55.28;31.34;72.56;;
51665;Laerm;37751;52.408;12.536;2023-11-21T02:32:44;48.92;26.07;67.39;;
51665;Laerm;37751;52.408;12.536;2023-11-21T02:35:16;55.16;27.95;69.72;;
51665;Laerm;37751;52.408;12.536;2023-11-21T02:37:49;49.49;28.85;66.30;;
51665;Laerm;37751;52.408;12.536;2023-11-21T02:40:25;55.83;26.96;76.20;;
51665;Laerm;37751;52.408;12.536;2023-11-21T02:42:56;53.54;28.68;72.33;;
51665;Laerm;37751;52.408;12.536;2023-11-21T02:45:28;52.44;29.53;66.92;;
51665;Laerm;37751;52.408;12.536;2023-11-21T02:48:00;50.41;26.44;69.34;;
51665;Laerm;37751;52.408;12.536;2023-11-21T02:50:32;51.86;34.61;64.95;;
51665;Laerm;37751;52.408;12.536;2023-11-21T02:53:24;55.99;31.58;72.56;;
51665;Laerm;37751;52.408;12.536;2023-11-21T02:56:02;53.04;37.26;66.42;;
51665;Laerm;37751;52.408;12.536;2023-11-21T02:58:37;51.53;34.79;66.75;;
51665;Laerm;37751;52.408;12.536;2023-11-21T03:01:40;54.37;34.63;69.76;;
51665;Laerm;37751;52.408;12.536;2023-11-21T03:04:12;53.81;34.96;65.71;;
51665;Laerm;37751;52.408;12.536;2023-11-21T03:06:52;46.39;30.37;65.09;;
51665;Laerm;37751;52.408;12.536;2023-11-21T03:09:27;51.28;35.57;64.40;;
51665;Laerm;37751;52.408;12.536;2023-11-21T03:12:19;55.09;30.00;67.74;;
51665;Laerm;37751;52.408;12.536;2023-11-21T03:14:51;53.47;32.00;68.95;;
51665;Laerm;37751;52.408;12.536;2023-11-21T03:17:23;52.93;36.42;65.75;;
51665;Laerm;37751;52.408;12.536;2023-11-21T03:19:54;57.93;37.70;69.58;;
51665;Laerm;37751;52.408;12.536;2023-11-21T03:22:26;55.16;34.85;71.09;;
51665;Laerm;37751;52.408;12.536;2023-11-21T03:25:18;55.44;41.97;68.29;;
51665;Laerm;37751;52.408;12.536;2023-11-21T03:27:55;54.88;38.58;65.53;;
51665;Laerm;37751;52.408;12.536;2023-11-21T03:30:26;55.91;37.93;68.15;;
51665;Laerm;37751;52.408;12.536;2023-11-21T03:33:19;55.90;43.92;66.63;;
51665;Laerm;37751;52.408;12.536;2023-11-21T03:35:52;60.32;49.49;72.38;;
51665;Laerm;37751;52.408;12.536;2023-11-21T03:38:37;57.73;43.41;69.47;;
51665;Laerm;37751;52.408;12.536;2023-11-21T03:41:12;59.35;48.30;70.66;;
51665;Laerm;37751;52.408;12.536;2023-11-21T03:43:46;59.44;44.80;74.54;;
51665;Laerm;37751;52.408;12.536;2023-11-21T03:46:21;58.62;40.36;72.23;;
51665;Laerm;37751;52.408;12.536;2023-11-21T03:48:52;56.80;40.69;70.32;;
51665;Laerm;37751;52.408;12.536;2023-11-21T03:51:24;57.65;43.88;67.49;;
51665;Laerm;37751;52.408;12.536;2023-11-21T03:53:58;57.79;42.42;68.95;;
51665;Laerm;37751;52.408;12.536;2023-11-21T03:56:32;56.34;38.16;67.85;;
51665;Laerm;37751;52.408;12.536;2023-11-21T03:59:10;58.65;40.80;71.71;;
51665;Laerm;37751;52.408;12.536;2023-11-21T04:01:58;57.74;39.87;69.93;;
51665;Laerm;37751;52.408;12.536;2023-11-21T04:05:10;59.92;44.81;71.14;;
51665;Laerm;37751;52.408;12.536;2023-11-21T04:07:42;56.70;43.49;73.43;;
51665;Laerm;37751;52.408;12.536;2023-11-21T04:10:54;58.97;44.37;70.21;;
51665;Laerm;37751;52.408;12.536;2023-11-21T04:13:29;59.35;43.94;69.28;;
51665;Laerm;37751;52.408;12.536;2023-11-21T04:16:06;59.60;41.63;68.09;;
51665;Laerm;37751;52.408;12.536;2023-11-21T04:18:51;60.69;44.79;71.39;;
51665;Laerm;37751;52.408;12.536;2023-11-21T04:21:26;58.48;41.27;69.14;;
51665;Laerm;37751;52.408;12.536;2023-11-21T04:23:58;58.85;44.95;67.07;;
51665;Laerm;37751;52.408;12.536;2023-11-21T04:26:42;59.92;47.46;74.22;;
51665;Laerm;37751;52.408;12.536;2023-11-21T04:29:18;59.63;42.86;70.65;;
51665;Laerm;37751;52.408;12.536;2023-11-21T04:31:52;59.33;41.91;70.72;;
51665;Laerm;37751;52.408;12.536;2023-11-21T04:34:24;60.72;44.29;72.23;;
51665;Laerm;37751;52.408;12.536;2023-11-21T04:36:58;60.00;46.22;71.44;;
51665;Laerm;37751;52.408;12.536;2023-11-21T04:39:50;61.22;41.70;78.82;;
51665;Laerm;37751;52.408;12.536;2023-11-21T04:42:34;59.50;40.95;70.23;;
51665;Laerm;37751;52.408;12.536;2023-11-21T04:45:09;59.79;43.51;73.63;;
51665;Laerm;37751;52.408;12.536;2023-11-21T04:48:24;59.71;45.24;73.05;;
51665;Laerm;37751;52.408;12.536;2023-11-21T04:51:01;61.26;46.71;74.56;;
51665;Laerm;37751;52.408;12.536;2023-11-21T04:53:33;60.60;45.64;72.79;;
51665;Laerm;37751;52.408;12.536;2023-11-21T04:56:05;59.45;45.31;70.18;;
51665;Laerm;37751;52.408;12.536;2023-11-21T04:58:57;59.13;44.93;68.76;;
51665;Laerm;37751;52.408;12.536;2023-11-21T05:01:32;58.11;41.68;67.88;;
51665;Laerm;37751;52.408;12.536;2023-11-21T05:04:18;59.43;43.88;68.71;;
51665;Laerm;37751;52.408;12.536;2023-11-21T05:06:50;60.45;43.77;72.41;;
51665;Laerm;37751;52.408;12.536;2023-11-21T05:09:25;61.13;46.19;70.46;;
51665;Laerm;37751;52.408;12.536;2023-11-21T05:12:00;59.75;43.40;66.98;;
51665;Laerm;37751;52.408;12.536;2023-11-21T05:14:34;61.71;41.98;71.49;;
51665;Laerm;37751;52.408;12.536;2023-11-21T05:17:29;59.95;43.31;69.77;;
51665;Laerm;37751;52.408;12.536;2023-11-21T05:20:05;59.21;43.22;67.70;;
51665;Laerm;37751;52.408;12.536;2023-11-21T05:22:40;59.32;46.19;69.06;;
51665;Laerm;37751;52.408;12.536;2023-11-21T05:25:12;59.89;43.18;70.97;;
51665;Laerm;37751;52.408;12.536;2023-11-21T05:27:48;61.49;47.16;73.35;;
51665;Laerm;37751;52.408;12.536;2023-11-21T05:30:39;60.21;45.18;73.86;;
51665;Laerm;37751;52.408;12.536;2023-11-21T05:33:12;62.15;51.27;70.36;;
51665;Laerm;37751;52.408;12.536;2023-11-21T05:35:46;62.13;47.74;71.24;;
51665;Laerm;37751;52.408;12.536;2023-11-21T05:38:42;60.23;48.26;72.22;;
51665;Laerm;37751;52.408;12.536;2023-11-21T05:41:15;61.47;50.82;68.87;;
51665;Laerm;37751;52.408;12.536;2023-11-21T05:44:00;61.81;48.41;71.59;;
51665;Laerm;37751;52.408;12.536;2023-11-21T05:47:01;61.14;45.47;70.99;;
51665;Laerm;37751;52.408;12.536;2023-11-21T05:49:57;62.01;44.76;70.18;;
51665;Laerm;37751;52.408;12.536;2023-11-21T05:52:36;60.67;46.88;70.44;;
51665;Laerm;37751;52.408;12.536;2023-11-21T05:55:09;61.67;46.95;71.20;;
51665;Laerm;37751;52.408;12.536;2023-11-21T05:57:42;60.89;48.97;69.50;;
51665;Laerm;37751;52.408;12.536;2023-11-21T06:00:17;60.13;43.22;72.45;;
51665;Laerm;37751;52.408;12.536;2023-11-21T06:02:54;61.61;48.52;71.17;;
51665;Laerm;37751;52.408;12.536;2023-11-21T06:05:28;60.13;47.08;67.33;;
51665;Laerm;37751;52.408;12.536;2023-11-21T06:08:03;71.71;50.13;89.55;;
51665;Laerm;37751;52.408;12.536;2023-11-21T06:10:38;60.07;47.88;72.25;;
51665;Laerm;37751;52.408;12.536;2023-11-21T06:13:10;61.86;46.56;72.54;;
51665;Laerm;37751;52.408;12.536;2023-11-21T06:15:45;61.05;48.93;69.42;;
51665;Laerm;37751;52.408;12.536;2023-11-21T06:18:16;60.07;49.81;67.01;;
51665;Laerm;37751;52.408;12.536;2023-11-21T06:20:49;61.59;51.11;69.29;;
51665;Laerm;37751;52.408;12.536;2023-11-21T06:23:27;61.66;50.74;70.91;;
51665;Laerm;37751;52.408;12.536;2023-11-21T06:26:05;77.02;51.83;91.48;;
51665;Laerm;37751;52.408;12.536;2023-11-21T06:28:40;59.63;49.14;66.67;;
51665;Laerm;37751;52.408;12.536;2023-11-21T06:31:16;61.27;51.09;72.78;;
51665;Laerm;37751;52.408;12.536;2023-11-21T06:33:53;60.54;49.05;68.72;;
51665;Laerm;37751;52.408;12.536;2023-11-21T06:36:26;60.31;48.81;68.54;;
51665;Laerm;37751;52.408;12.536;2023-11-21T06:39:00;61.56;48.89;74.74;;
51665;Laerm;37751;52.408;12.536;2023-11-21T06:41:37;60.77;50.38;71.79;;
51665;Laerm;37751;52.408;12.536;2023-11-21T06:44:09;61.17;47.86;70.78;;
51665;Laerm;37751;52.408;12.536;2023-11-21T06:46:41;60.11;47.02;73.63;;
51665;Laerm;37751;52.408;12.536;2023-11-21T06:49:15;61.46;47.30;68.03;;
51665;Laerm;37751;52.408;12.536;2023-11-21T06:51:49;61.12;47.46;69.81;;
51665;Laerm;37751;52.408;12.536;2023-11-21T06:54:28;60.95;48.00;70.11;;
51665;Laerm;37751;52.408;12.536;2023-11-21T06:57:00;60.78;46.28;74.20;;
51665;Laerm;37751;52.408;12.536;2023-11-21T06:59:32;61.36;47.01;73.15;;
51665;Laerm;37751;52.408;12.536;2023-11-21T07:02:04;61.73;45.04;79.31;;
51665;Laerm;37751;52.408;12.536;2023-11-21T07:04:36;61.32;49.30;69.58;;
51665;Laerm;37751;52.408;12.536;2023-11-21T07:07:31;61.32;50.19;68.57;;
51665;Laerm;37751;52.408;12.536;2023-11-21T07:10:27;60.95;47.65;70.69;;
51665;Laerm;37751;52.408;12.536;2023-11-21T07:12:58;59.23;45.98;67.29;;
51665;Laerm;37751;52.408;12.536;2023-11-21T07:15:52;59.67;47.55;68.21;;
51665;Laerm;37751;52.408;12.536;2023-11-21T07:18:24;60.57;49.29;67.48;;
51665;Laerm;37751;52.408;12.536;2023-11-21T07:20:55;61.51;49.67;70.83;;
51665;Laerm;37751;52.408;12.536;2023-11-21T07:23:57;60.50;44.89;69.57;;
51665;Laerm;37751;52.408;12.536;2023-11-21T07:26:32;60.34;43.92;67.82;;
51665;Laerm;37751;52.408;12.536;2023-11-21T07:29:07;60.52;47.87;72.65;;
51665;Laerm;37751;52.408;12.536;2023-11-21T07:31:44;59.70;46.45;69.10;;
51665;Laerm;37751;52.408;12.536;2023-11-21T07:34:36;59.90;47.43;74.66;;
51665;Laerm;37751;52.408;12.536;2023-11-21T07:37:10;58.83;46.98;66.75;;
51665;Laerm;37751;52.408;12.536;2023-11-21T07:39:42;60.21;49.17;69.88;;
51665;Laerm;37751;52.408;12.536;2023-11-21T07:42:20;59.65;49.48;67.65;;
51665;Laerm;37751;52.408;12.536;2023-11-21T07:45:16;60.36;44.93;70.91;;
51665;Laerm;37751;52.408;12.536;2023-11-21T07:47:47;60.98;44.43;69.38;;
51665;Laerm;37751;52.408;12.536;2023-11-21T07:50:25;62.93;49.29;73.06;;
51665;Laerm;37751;52.408;12.536;2023-11-21T07:52:58;60.42;49.10;71.24;;
51665;Laerm;37751;52.408;12.536;2023-11-21T07:55:37;60.85;48.30;69.75;;
51665;Laerm;37751;52.408;12.536;2023-11-21T07:58:13;60.45;48.75;68.85;;
51665;Laerm;37751;52.408;12.536;2023-11-21T08:01:05;61.16;48.28;69.07;;
51665;Laerm;37751;52.408;12.536;2023-11-21T08:03:39;60.72;48.40;71.86;;
51665;Laerm;37751;52.408;12.536;2023-11-21T08:06:12;60.54;46.39;69.37;;
51665;Laerm;37751;52.408;12.536;2023-11-21T08:09:04;61.63;51.15;70.62;;
51665;Laerm;37751;52.408;12.536;2023-11-21T08:11:42;60.63;51.86;68.25;;
51665;Laerm;37751;52.408;12.536;2023-11-21T08:14:27;61.23;48.42;70.64;;
51665;Laerm;37751;52.408;12.536;2023-11-21T08:17:03;59.34;46.62;73.12;;
51665;Laerm;37751;52.408;12.536;2023-11-21T08:19:55;59.94;47.85;70.81;;
51665;Laerm;37751;52.408;12.536;2023-11-21T08:22:37;60.52;48.12;69.97;;
51665;Laerm;37751;52.408;12.536;2023-11-21T08:25:29;60.38;47.86;70.70;;
51665;Laerm;37751;52.408;12.536;2023-11-21T08:28:07;58.87;45.52;70.40;;
51665;Laerm;37751;52.408;12.536;2023-11-21T08:30:48;66.91;52.26;83.82;;
51665;Laerm;37751;52.408;12.536;2023-11-21T08:33:20;60.17;47.67;67.37;;
51665;Laerm;37751;52.408;12.536;2023-11-21T08:35:54;59.15;49.86;68.47;;
51665;Laerm;37751;52.408;12.536;2023-11-21T08:38:31;63.82;50.57;73.19;;
51665;Laerm;37751;52.408;12.536;2023-11-21T08:41:25;60.98;48.09;71.31;;
51665;Laerm;37751;52.408;12.536;2023-11-21T08:44:03;60.21;46.50;69.90;;
51665;Laerm;37751;52.408;12.536;2023-11-21T08:46:39;60.72;49.36;68.80;;
51665;Laerm;37751;52.408;12.536;2023-11-21T08:49:12;62.53;49.45;75.86;;
51665;Laerm;37751;52.408;12.536;2023-11-21T08:51:45;60.30;49.20;70.17;;
51665;Laerm;37751;52.408;12.536;2023-11-21T08:54:40;60.41;44.04;70.01;;
51665;Laerm;37751;52.408;12.536;2023-11-21T08:57:12;61.17;48.74;68.57;;
51665;Laerm;37751;52.408;12.536;2023-11-21T08:59:43;58.94;47.02;68.05;;
51665;Laerm;37751;52.408;12.536;2023-11-21T09:02:41;61.84;49.71;75.35;;
51665;Laerm;37751;52.408;12.536;2023-11-21T09:05:16;61.67;46.51;70.21;;
51665;Laerm;37751;52.408;12.536;2023-11-21T09:08:05;60.58;47.18;75.28;;
51665;Laerm;37751;52.408;12.536;2023-11-21T09:10:58;60.11;46.41;69.04;;
51665;Laerm;37751;52.408;12.536;2023-11-21T09:13:34;60.38;47.87;69.65;;
51665;Laerm;37751;52.408;12.536;2023-11-21T09:16:09;60.81;47.93;69.37;;
51665;Laerm;37751;52.408;12.536;2023-11-21T09:18:46;64.09;49.82;80.94;;
51665;Laerm;37751;52.408;12.536;2023-11-21T09:21:17;63.17;52.21;74.28;;
51665;Laerm;37751;52.408;12.536;2023-11-21T09:23:52;60.56;49.81;70.66;;
51665;Laerm;37751;52.408;12.536;2023-11-21T09:26:24;60.79;47.66;69.06;;
51665;Laerm;37751;52.408;12.536;2023-11-21T09:28:59;59.40;47.70;66.35;;
51665;Laerm;37751;52.408;12.536;2023-11-21T09:32:11;59.69;48.30;69.43;;
51665;Laerm;37751;52.408;12.536;2023-11-21T09:34:53;60.74;48.80;69.03;;
51665;Laerm;37751;52.408;12.536;2023-11-21T09:37:31;60.88;48.98;73.09;;
51665;Laerm;37751;52.408;12.536;2023-11-21T09:40:14;61.93;50.37;72.39;;
51665;Laerm;37751;52.408;12.536;2023-11-21T09:43:28;60.58;47.92;68.68;;
51665;Laerm;37751;52.408;12.536;2023-11-21T09:46:06;59.23;45.72;73.44;;
51665;Laerm;37751;52.408;12.536;2023-11-21T09:49:00;60.30;45.09;69.20;;
51665;Laerm;37751;52.408;12.536;2023-11-21T09:51:43;59.92;47.70;68.26;;
51665;Laerm;37751;52.408;12.536;2023-11-21T09:54:39;61.99;50.71;71.51;;
51665;Laerm;37751;52.408;12.536;2023-11-21T09:57:14;64.25;47.77;76.73;;
51665;Laerm;37751;52.408;12.536;2023-11-21T10:00:17;60.30;47.23;68.48;;
51665;Laerm;37751;52.408;12.536;2023-11-21T10:02:59;61.58;48.32;80.59;;
51665;Laerm;37751;52.408;12.536;2023-11-21T10:05:34;59.59;46.63;71.27;;
51665;Laerm;37751;52.408;12.536;2023-11-21T10:08:30;60.94;47.92;72.80;;
51665;Laerm;37751;52.408;12.536;2023-11-21T10:11:58;60.35;48.64;68.11;;
51665;Laerm;37751;52.408;12.536;2023-11-21T10:14:55;60.06;45.53;69.80;;
51665;Laerm;37751;52.408;12.536;2023-11-21T10:17:44;60.63;46.10;70.29;;
51665;Laerm;37751;52.408;12.536;2023-11-21T10:20:55;60.67;45.64;69.00;;
51665;Laerm;37751;52.408;12.536;2023-11-21T10:23:42;61.83;46.34;76.10;;
51665;Laerm;37751;52.408;12.536;2023-11-21T10:26:23;60.21;48.30;70.44;;
51665;Laerm;37751;52.408;12.536;2023-11-21T10:29:21;59.09;46.52;68.46;;
51665;Laerm;37751;52.408;12.536;2023-11-21T10:32:16;65.94;48.73;87.46;;
51665;Laerm;37751;52.408;12.536;2023-11-21T10:34:56;60.55;46.02;68.34;;
51665;Laerm;37751;52.408;12.536;2023-11-21T10:37:31;61.39;47.60;71.65;;
51665;Laerm;37751;52.408;12.536;2023-11-21T10:40:28;62.47;47.47;69.72;;
51665;Laerm;37751;52.408;12.536;2023-11-21T10:43:30;59.60;45.68;70.61;;
51665;Laerm;37751;52.408;12.536;2023-11-21T10:46:23;61.24;50.31;69.71;;
51665;Laerm;37751;52.408;12.536;2023-11-21T10:49:18;61.10;50.10;75.93;;
51665;Laerm;37751;52.408;12.536;2023-11-21T10:51:54;61.62;51.13;70.83;;
51665;Laerm;37751;52.408;12.536;2023-11-21T10:54:28;59.57;46.44;70.57;;
51665;Laerm;37751;52.408;12.536;2023-11-21T10:57:06;60.89;46.58;72.63;;
51665;Laerm;37751;52.408;12.536;2023-11-21T10:59:50;60.97;43.93;74.63;;
51665;Laerm;37751;52.408;12.536;2023-11-21T11:02:42;60.12;45.70;71.24;;
51665;Laerm;37751;52.408;12.536;2023-11-21T11:05:26;59.75;47.23;68.38;;
51665;Laerm;37751;52.408;12.536;2023-11-21T11:08:22;60.25;47.88;71.05;;
51665;Laerm;37751;52.408;12.536;2023-11-21T11:11:18;60.16;47.57;68.98;;
51665;Laerm;37751;52.408;12.536;2023-11-21T11:13:53;60.55;48.01;68.37;;
51665;Laerm;37751;52.408;12.536;2023-11-21T11:16:49;65.77;52.20;80.52;;
51665;Laerm;37751;52.408;12.536;2023-11-21T11:19:43;61.29;51.54;73.74;;
51665;Laerm;37751;52.408;12.536;2023-11-21T11:22:40;62.37;52.10;73.56;;
51665;Laerm;37751;52.408;12.536;2023-11-21T11:25:29;61.43;52.75;70.10;;
51665;Laerm;37751;52.408;12.536;2023-11-21T11:28:35;61.02;47.52;70.20;;
51665;Laerm;37751;52.408;12.536;2023-11-21T11:31:24;61.09;50.24;71.39;;
51665;Laerm;37751;52.408;12.536;2023-11-21T11:34:06;58.60;46.05;77.24;;
51665;Laerm;37751;52.408;12.536;2023-11-21T11:36:48;61.15;48.74;67.55;;
51665;Laerm;37751;52.408;12.536;2023-11-21T11:39:29;59.81;46.13;69.98;;
51665;Laerm;37751;52.408;12.536;2023-11-21T11:42:56;59.68;45.86;67.23;;
51665;Laerm;37751;52.408;12.536;2023-11-21T11:45:34;61.16;49.41;69.74;;
51665;Laerm;37751;52.408;12.536;2023-11-21T11:48:17;59.97;52.11;68.11;;
51665;Laerm;37751;52.408;12.536;2023-11-21T11:51:14;61.96;48.32;76.60;;
51665;Laerm;37751;52.408;12.536;2023-11-21T11:53:48;60.41;50.60;71.55;;
51665;Laerm;37751;52.408;12.536;2023-11-21T11:56:26;61.54;52.12;72.82;;
51665;Laerm;37751;52.408;12.536;2023-11-21T11:59:02;61.36;53.26;69.46;;
51665;Laerm;37751;52.408;12.536;2023-11-21T12:01:58;61.63;48.92;71.63;;
51665;Laerm;37751;52.408;12.536;2023-11-21T12:04:45;60.80;45.44;71.87;;
51665;Laerm;37751;52.408;12.536;2023-11-21T12:07:19;60.52;50.95;68.50;;
51665;Laerm;37751;52.408;12.536;2023-11-21T12:09:55;61.00;49.70;72.22;;
51665;Laerm;37751;52.408;12.536;2023-11-21T12:12:32;60.78;49.08;74.41;;
51665;Laerm;37751;52.408;12.536;2023-11-21T12:15:27;60.62;46.44;68.03;;
51665;Laerm;37751;52.408;12.536;2023-11-21T12:18:19;60.41;49.11;66.65;;
51665;Laerm;37751;52.408;12.536;2023-11-21T12:20:57;60.99;50.09;70.64;;
51665;Laerm;37751;52.408;12.536;2023-11-21T12:23:32;61.16;48.83;70.16;;
51665;Laerm;37751;52.408;12.536;2023-11-21T12:26:05;60.46;48.29;72.36;;
51665;Laerm;37751;52.408;12.536;2023-11-21T12:28:52;61.70;49.38;73.27;;
51665;Laerm;37751;52.408;12.536;2023-11-21T12:31:46;60.90;45.02;74.34;;
51665;Laerm;37751;52.408;12.536;2023-11-21T12:34:26;60.73;47.28;67.30;;
51665;Laerm;37751;52.408;12.536;2023-11-21T12:37:34;61.41;47.04;73.65;;
51665;Laerm;37751;52.408;12.536;2023-11-21T12:40:46;60.07;49.79;67.61;;
51665;Laerm;37751;52.408;12.536;2023-11-21T12:43:18;61.32;51.02;74.93;;
51665;Laerm;37751;52.408;12.536;2023-11-21T12:45:51;61.83;51.97;75.78;;
51665;Laerm;37751;52.408;12.536;2023-11-21T12:48:56;61.14;48.25;71.78;;
51665;Laerm;37751;52.408;12.536;2023-11-21T12:51:51;60.39;48.16;70.60;;
51665;Laerm;37751;52.408;12.536;2023-11-21T12:54:26;59.28;47.94;67.37;;
51665;Laerm;37751;52.408;12.536;2023-11-21T12:57:18;60.94;48.68;73.32;;
51665;Laerm;37751;52.408;12.536;2023-11-21T13:00:06;61.17;48.78;74.46;;
51665;Laerm;37751;52.408;12.536;2023-11-21T13:03:22;60.57;49.02;69.45;;
51665;Laerm;37751;52.408;12.536;2023-11-21T13:06:25;59.77;46.55;68.18;;
51665;Laerm;37751;52.408;12.536;2023-11-21T13:09:25;61.45;49.64;73.41;;
51665;Laerm;37751;52.408;12.536;2023-11-21T13:12:01;64.50;47.98;75.23;;
51665;Laerm;37751;52.408;12.536;2023-11-21T13:14:41;62.48;54.21;71.75;;
51665;Laerm;37751;52.408;12.536;2023-11-21T13:17:35;61.82;52.58;75.32;;
51665;Laerm;37751;52.408;12.536;2023-11-21T13:20:12;61.73;50.14;72.53;;
51665;Laerm;37751;52.408;12.536;2023-11-21T13:23:10;61.55;51.44;68.82;;
51665;Laerm;37751;52.408;12.536;2023-11-21T13:26:10;61.55;49.28;69.21;;
51665;Laerm;37751;52.408;12.536;2023-11-21T13:28:49;61.07;52.10;69.90;;
51665;Laerm;37751;52.408;12.536;2023-11-21T13:31:22;61.33;49.16;70.75;;
51665;Laerm;37751;52.408;12.536;2023-11-21T13:33:55;60.53;47.16;68.89;;
51665;Laerm;37751;52.408;12.536;2023-11-21T13:36:39;60.26;46.59;68.11;;
51665;Laerm;37751;52.408;12.536;2023-11-21T13:39:15;61.54;48.77;70.67;;
51665;Laerm;37751;52.408;12.536;2023-11-21T13:42:22;61.90;49.90;75.75;;
51665;Laerm;37751;52.408;12.536;2023-11-21T13:44:57;62.37;52.72;69.86;;
51665;Laerm;37751;52.408;12.536;2023-11-21T13:47:29;60.87;52.91;79.40;;
51665;Laerm;37751;52.408;12.536;2023-11-21T13:50:03;61.23;48.29;75.89;;
51665;Laerm;37751;52.408;12.536;2023-11-21T13:52:49;61.44;51.08;69.16;;
51665;Laerm;37751;52.408;12.536;2023-11-21T13:55:22;61.36;49.83;70.95;;
51665;Laerm;37751;52.408;12.536;2023-11-21T13:58:20;60.51;45.51;68.56;;
51665;Laerm;37751;52.408;12.536;2023-11-21T14:01:06;60.75;47.13;73.90;;
51665;Laerm;37751;52.408;12.536;2023-11-21T14:03:52;61.51;49.63;68.15;;
51665;Laerm;37751;52.408;12.536;2023-11-21T14:06:30;60.68;49.22;72.85;;
51665;Laerm;37751;52.408;12.536;2023-11-21T14:09:26;61.59;50.23;74.14;;
51665;Laerm;37751;52.408;12.536;2023-11-21T14:12:07;78.30;50.77;93.75;;
51665;Laerm;37751;52.408;12.536;2023-11-21T14:14:46;62.15;48.82;70.85;;
51665;Laerm;37751;52.408;12.536;2023-11-21T14:17:39;61.86;49.93;68.40;;
51665;Laerm;37751;52.408;12.536;2023-11-21T14:20:17;61.54;50.48;70.45;;
51665;Laerm;37751;52.408;12.536;2023-11-21T14:22:49;61.35;50.44;71.23;;
51665;Laerm;37751;52.408;12.536;2023-11-21T14:25:27;60.81;47.07;67.99;;
51665;Laerm;37751;52.408;12.536;2023-11-21T14:28:29;60.11;46.87;66.48;;
51665;Laerm;37751;52.408;12.536;2023-11-21T14:31:15;61.16;47.79;78.36;;
51665;Laerm;37751;52.408;12.536;2023-11-21T14:33:51;60.88;49.63;68.50;;
51665;Laerm;37751;52.408;12.536;2023-11-21T14:36:23;61.55;47.92;70.57;;
51665;Laerm;37751;52.408;12.536;2023-11-21T14:39:00;60.63;48.74;67.21;;
51665;Laerm;37751;52.408;12.536;2023-11-21T14:41:38;62.35;50.97;70.57;;
51665;Laerm;37751;52.408;12.536;2023-11-21T14:44:26;61.01;47.22;71.74;;
51665;Laerm;37751;52.408;12.536;2023-11-21T14:47:10;61.31;49.64;67.21;;
51665;Laerm;37751;52.408;12.536;2023-11-21T14:50:05;62.50;51.81;76.89;;
51665;Laerm;37751;52.408;12.536;2023-11-21T14:53:27;61.98;51.19;81.30;;